createdAt,value
2023-01-18T00:01:16.165Z,98103.84
2023-01-18T00:03:44.276Z,98109.63
2023-01-18T00:06:12.875Z,98111.19
2023-01-18T00:08:42.613Z,98103.44
2023-01-18T00:11:15.380Z,98095.66
2023-01-18T00:13:43.894Z,98110.72
2023-01-18T00:16:14.149Z,98123.56
2023-01-18T00:18:42.442Z,98112.72
2023-01-18T00:21:13.249Z,98101.94
2023-01-18T00:23:41.408Z,98099.19
2023-01-18T00:26:12.605Z,98089.97
2023-01-18T00:28:41.604Z,98111.25
2023-01-18T00:31:13.753Z,98115.09
2023-01-18T00:33:44.009Z,98118.53
2023-01-18T00:36:13.357Z,98120.22
2023-01-18T00:38:41.603Z,98116.06
2023-01-18T00:41:11.051Z,98120.00
2023-01-18T00:43:40.718Z,98114.59
2023-01-18T00:46:09.651Z,98123.88
2023-01-18T00:48:38.900Z,98140.13
2023-01-18T00:51:07.940Z,98141.66
2023-01-18T00:53:41.113Z,98145.94
2023-01-18T00:56:12.317Z,98145.50
2023-01-18T00:58:40.652Z,98133.13
2023-01-18T01:01:09.883Z,98140.91
2023-01-18T01:03:52.114Z,98133.19
2023-01-18T01:06:43.472Z,98121.94
2023-01-18T01:09:12.230Z,98113.44
2023-01-18T01:12:01.803Z,98117.28
2023-01-18T01:14:47.637Z,98127.66
2023-01-18T01:17:33.005Z,98117.56
2023-01-18T01:20:18.570Z,98117.13
2023-01-18T01:23:03.975Z,98103.19
2023-01-18T01:25:49.615Z,98110.22
2023-01-18T01:28:19.248Z,98108.22
2023-01-18T01:30:47.581Z,98107.44
2023-01-18T01:33:15.813Z,98117.53
2023-01-18T01:35:44.321Z,98100.91
2023-01-18T01:38:12.515Z,98102.41
2023-01-18T01:40:40.663Z,98107.41
2023-01-18T01:43:13.836Z,98104.66
2023-01-18T01:45:43.419Z,98089.97
2023-01-18T01:48:12.223Z,98073.41
2023-01-18T01:50:41.829Z,98068.78
2023-01-18T01:53:12.027Z,98074.16
2023-01-18T01:55:41.938Z,98071.09
2023-01-18T01:58:14.441Z,98085.31
2023-01-18T02:00:45.196Z,98093.81
2023-01-18T02:03:19.250Z,98095.72
2023-01-18T02:05:49.837Z,98094.13
2023-01-18T02:08:23.417Z,98081.78
2023-01-18T02:10:52.523Z,98093.06
2023-01-18T02:13:22.338Z,98105.41
2023-01-18T02:16:03.237Z,98115.78
2023-01-18T02:18:37.022Z,98092.59
2023-01-18T02:21:14.136Z,98099.19
2023-01-18T02:24:14.395Z,98107.34
2023-01-18T02:26:53.892Z,98090.00
2023-01-18T02:29:35.493Z,98109.25
2023-01-18T02:32:20.166Z,98130.06
2023-01-18T02:34:51.113Z,98131.19
2023-01-18T02:37:27.537Z,98098.78
2023-01-18T02:40:10.281Z,98078.75
2023-01-18T02:42:58.021Z,98078.03
2023-01-18T02:45:50.339Z,98074.22
2023-01-18T02:48:23.633Z,98085.16
2023-01-18T02:50:52.382Z,98100.22
2023-01-18T02:53:20.518Z,98103.66
2023-01-18T02:55:55.103Z,98121.47
2023-01-18T02:58:29.387Z,98105.66
2023-01-18T03:01:04.525Z,98112.19
2023-01-18T03:03:33.089Z,98128.41
2023-01-18T03:06:03.273Z,98126.13
2023-01-18T03:08:38.527Z,98099.88
2023-01-18T03:11:13.478Z,98115.75
2023-01-18T03:13:53.430Z,98107.63
2023-01-18T03:16:25.164Z,98110.75
2023-01-18T03:19:03.073Z,98106.09
2023-01-18T03:21:42.397Z,98103.38
2023-01-18T03:24:10.911Z,98107.22
2023-01-18T03:26:44.077Z,98089.03
2023-01-18T03:29:33.200Z,98099.41
2023-01-18T03:32:26.870Z,98098.59
2023-01-18T03:34:59.817Z,98097.84
2023-01-18T03:37:31.645Z,98105.59
2023-01-18T03:40:04.669Z,98099.75
2023-01-18T03:42:38.298Z,98114.41
2023-01-18T03:45:12.502Z,98105.13
2023-01-18T03:47:42.302Z,98105.06
2023-01-18T03:50:11.259Z,98105.47
2023-01-18T03:52:43.403Z,98115.13
2023-01-18T03:55:19.275Z,98112.00
2023-01-18T03:57:51.442Z,98098.78
2023-01-18T04:00:20.824Z,98106.94
2023-01-18T04:02:51.853Z,98131.66
2023-01-18T04:05:20.227Z,98118.47
2023-01-18T04:07:48.659Z,98103.06
2023-01-18T04:10:16.950Z,98108.94
2023-01-18T04:12:45.100Z,98102.72
2023-01-18T04:15:13.582Z,98122.78
2023-01-18T04:17:41.741Z,98107.72
2023-01-18T04:20:12.552Z,98112.34
2023-01-18T04:22:40.764Z,98118.91
2023-01-18T04:25:09.548Z,98132.78
2023-01-18T04:27:37.660Z,98116.53
2023-01-18T04:30:06.885Z,98138.94
2023-01-18T04:32:34.965Z,98159.41
2023-01-18T04:35:03.221Z,98153.50
2023-01-18T04:37:34.209Z,98133.41
2023-01-18T04:40:02.454Z,98127.66
2023-01-18T04:42:30.837Z,98131.88
2023-01-18T04:45:00.044Z,98136.16
2023-01-18T04:47:29.723Z,98137.22
2023-01-18T04:49:58.838Z,98133.63
2023-01-18T04:52:27.113Z,98133.22
2023-01-18T04:54:57.012Z,98139.34
2023-01-18T04:57:25.789Z,98128.56
2023-01-18T04:59:53.962Z,98109.63
2023-01-18T05:02:22.186Z,98110.47
2023-01-18T05:04:50.346Z,98113.94
2023-01-18T05:07:18.697Z,98127.72
2023-01-18T05:09:46.883Z,98117.66
2023-01-18T05:12:18.859Z,98157.84
2023-01-18T05:14:47.349Z,98167.09
2023-01-18T05:17:15.802Z,98172.03
2023-01-18T05:19:43.991Z,98151.19
2023-01-18T05:22:12.159Z,98145.66
2023-01-18T05:24:40.344Z,98162.22
2023-01-18T05:27:08.645Z,98152.28
2023-01-18T05:29:40.906Z,98138.53
2023-01-18T05:32:10.807Z,98169.72
2023-01-18T05:34:39.048Z,98141.00
2023-01-18T05:37:07.738Z,98146.84
2023-01-18T05:39:36.540Z,98151.91
2023-01-18T05:42:05.534Z,98150.94
2023-01-18T05:44:33.956Z,98140.06
2023-01-18T05:47:03.682Z,98139.63
2023-01-18T05:49:33.217Z,98163.47
2023-01-18T05:52:01.319Z,98152.34
2023-01-18T05:54:29.536Z,98140.00
2023-01-18T05:56:58.417Z,98163.25
2023-01-18T05:59:26.811Z,98163.97
2023-01-18T06:01:54.869Z,98175.06
2023-01-18T06:04:24.940Z,98173.09
2023-01-18T06:06:54.094Z,98167.25
2023-01-18T06:09:22.460Z,98175.09
2023-01-18T06:11:50.872Z,98181.66
2023-01-18T06:14:19.034Z,98176.56
2023-01-18T06:16:47.422Z,98189.22
2023-01-18T06:19:15.781Z,98189.22
2023-01-18T06:21:45.421Z,98177.09
2023-01-18T06:24:13.973Z,98207.97
2023-01-18T06:26:42.147Z,98193.25
2023-01-18T06:29:10.508Z,98207.47
2023-01-18T06:31:39.299Z,98201.66
2023-01-18T06:34:09.568Z,98204.47
2023-01-18T06:36:38.176Z,98214.34
2023-01-18T06:39:08.179Z,98188.16
2023-01-18T06:41:36.418Z,98183.94
2023-01-18T06:44:04.761Z,98220.25
2023-01-18T06:46:33.809Z,98208.00
2023-01-18T06:49:02.018Z,98221.13
2023-01-18T06:51:30.450Z,98211.81
2023-01-18T06:53:58.568Z,98214.53
2023-01-18T06:56:29.415Z,98232.69
2023-01-18T06:58:59.588Z,98211.50
2023-01-18T07:01:28.305Z,98199.38
2023-01-18T07:03:57.007Z,98208.25
2023-01-18T07:06:25.485Z,98238.75
2023-01-18T07:08:53.828Z,98239.88
2023-01-18T07:11:22.270Z,98239.63
2023-01-18T07:14:10.443Z,98244.22
2023-01-18T07:16:39.092Z,98235.66
2023-01-18T07:19:07.366Z,98241.88
2023-01-18T07:21:35.870Z,98243.41
2023-01-18T07:24:03.900Z,98250.41
2023-01-18T07:26:32.001Z,98256.22
2023-01-18T07:29:01.909Z,98240.00
2023-01-18T07:31:30.774Z,98237.38
2023-01-18T07:33:59.213Z,98241.38
2023-01-18T07:36:27.600Z,98237.56
2023-01-18T07:38:55.876Z,98238.41
2023-01-18T07:41:24.408Z,98244.25
2023-01-18T07:43:54.174Z,98252.78
2023-01-18T07:46:26.049Z,98268.69
2023-01-18T07:48:54.675Z,98268.72
2023-01-18T07:51:23.450Z,98273.72
2023-01-18T07:53:55.239Z,98270.25
2023-01-18T07:56:25.303Z,98271.44
2023-01-18T07:58:53.973Z,98277.25
2023-01-18T08:01:24.279Z,98285.78
2023-01-18T08:03:54.585Z,98297.41
2023-01-18T08:06:26.045Z,98306.75
2023-01-18T08:08:56.717Z,98306.03
2023-01-18T08:11:25.270Z,98304.47
2023-01-18T08:13:53.584Z,98306.44
2023-01-18T08:16:24.492Z,98316.56
2023-01-18T08:18:52.674Z,98303.38
2023-01-18T08:21:20.764Z,98309.56
2023-01-18T08:23:48.868Z,98320.44
2023-01-18T08:26:16.987Z,98310.75
2023-01-18T08:28:45.686Z,98319.28
2023-01-18T08:31:16.007Z,98302.59
2023-01-18T08:33:48.905Z,98306.03
2023-01-18T08:36:19.840Z,98323.84
2023-01-18T08:38:50.325Z,98316.06
2023-01-18T08:41:19.234Z,98308.97
2023-01-18T08:43:51.133Z,98321.63
2023-01-18T08:46:19.739Z,98320.00
2023-01-18T08:48:52.189Z,98335.09
2023-01-18T08:51:22.968Z,98332.69
2023-01-18T08:53:51.710Z,98324.31
2023-01-18T08:56:20.330Z,98326.56
2023-01-18T08:58:48.638Z,98318.34
2023-01-18T09:01:17.039Z,98308.03
2023-01-18T09:03:47.356Z,98319.22
2023-01-18T09:06:16.955Z,98327.13
2023-01-18T09:08:47.870Z,98315.25
2023-01-18T09:11:17.123Z,98331.16
2023-01-18T09:13:59.857Z,98340.88
2023-01-18T09:16:29.737Z,98319.19
2023-01-18T09:18:58.739Z,98322.53
2023-01-18T09:21:29.366Z,98330.75
2023-01-18T09:23:59.507Z,98332.28
2023-01-18T09:26:29.051Z,98340.00
2023-01-18T09:28:57.600Z,98336.59
2023-01-18T09:31:28.129Z,98323.69
2023-01-18T09:34:12.994Z,98334.06
2023-01-18T09:36:47.808Z,98322.72
2023-01-18T09:39:15.934Z,98330.09
2023-01-18T09:41:49.251Z,98314.56
2023-01-18T09:44:23.085Z,98311.00
2023-01-18T09:46:56.945Z,98320.69
2023-01-18T09:49:30.324Z,98326.88
2023-01-18T09:52:19.575Z,98313.19
2023-01-18T09:54:55.671Z,98310.59
2023-01-18T09:57:38.034Z,98314.38
2023-01-18T10:00:19.869Z,98323.63
2023-01-18T10:02:51.927Z,98324.44
2023-01-18T10:05:24.616Z,98327.72
2023-01-18T10:08:03.698Z,98314.06
2023-01-18T10:10:37.771Z,98309.09
2023-01-18T10:13:24.779Z,98326.91
2023-01-18T10:15:53.193Z,98319.66
2023-01-18T10:18:21.389Z,98336.19
2023-01-18T10:20:53.054Z,98332.41
2023-01-18T10:23:31.519Z,98302.84
2023-01-18T10:26:04.856Z,98325.28
2023-01-18T10:28:47.866Z,98325.38
2023-01-18T10:31:31.277Z,98309.84
2023-01-18T10:34:02.849Z,98326.38
2023-01-18T10:36:38.612Z,98325.78
2023-01-18T10:39:28.205Z,98321.88
2023-01-18T10:42:00.832Z,98328.16
2023-01-18T10:44:31.725Z,98322.50
2023-01-18T10:47:01.751Z,98328.44
2023-01-18T10:49:42.032Z,98324.72
2023-01-18T10:52:25.665Z,98322.41
2023-01-18T10:54:58.210Z,98321.66
2023-01-18T10:57:30.998Z,98322.09
2023-01-18T11:00:00.207Z,98324.59
2023-01-18T11:02:36.257Z,98329.56
2023-01-18T11:05:21.328Z,98324.41
2023-01-18T11:07:49.600Z,98330.53
2023-01-18T11:10:27.757Z,98332.44
2023-01-18T11:12:55.868Z,98332.88
2023-01-18T11:15:26.967Z,98331.34
2023-01-18T11:18:06.267Z,98335.28
2023-01-18T11:20:40.044Z,98319.56
2023-01-18T11:23:17.958Z,98334.06
2023-01-18T11:25:53.755Z,98322.84
2023-01-18T11:28:24.568Z,98316.47
2023-01-18T11:30:57.012Z,98305.16
2023-01-18T11:33:27.584Z,98318.34
2023-01-18T11:36:00.353Z,98315.47
2023-01-18T11:38:31.964Z,98320.97
2023-01-18T11:41:07.328Z,98321.88
2023-01-18T11:43:39.472Z,98321.13
2023-01-18T11:46:29.970Z,98314.03
2023-01-18T11:49:07.996Z,98306.34
2023-01-18T11:51:46.520Z,98317.78
2023-01-18T11:54:33.221Z,98319.78
2023-01-18T11:57:03.499Z,98331.09
2023-01-18T11:59:35.013Z,98335.91
2023-01-18T12:02:35.634Z,98344.84
2023-01-18T12:05:29.772Z,98343.88
2023-01-18T12:08:27.089Z,98341.34
2023-01-18T12:11:08.830Z,98329.78
2023-01-18T12:13:43.560Z,98340.00
2023-01-18T12:16:21.286Z,98344.19
2023-01-18T12:19:25.386Z,98346.84
2023-01-18T12:22:13.050Z,98353.00
2023-01-18T12:24:54.221Z,98364.88
2023-01-18T12:27:32.776Z,98368.47
2023-01-18T12:30:16.713Z,98376.84
2023-01-18T12:33:06.631Z,98381.84
2023-01-18T12:35:56.790Z,98382.91
2023-01-18T12:38:29.161Z,98391.94
2023-01-18T12:41:22.846Z,98406.69
2023-01-18T12:44:11.616Z,98402.63
2023-01-18T12:46:48.180Z,98413.03
2023-01-18T12:49:21.535Z,98423.59
2023-01-18T12:51:56.095Z,98427.25
2023-01-18T12:54:32.682Z,98431.72
2023-01-18T12:57:01.424Z,98439.91
2023-01-18T12:59:34.824Z,98431.72
2023-01-18T13:02:24.172Z,98432.72
2023-01-18T13:04:58.166Z,98423.16
2023-01-18T13:07:33.641Z,98423.91
2023-01-18T13:10:02.192Z,98431.16
2023-01-18T13:12:33.561Z,98423.81
2023-01-18T13:15:07.950Z,98426.34
2023-01-18T13:17:42.609Z,98421.59
2023-01-18T13:20:18.982Z,98429.25
2023-01-18T13:22:58.252Z,98440.44
2023-01-18T13:25:41.595Z,98446.78
2023-01-18T13:28:19.301Z,98456.31
2023-01-18T13:30:55.739Z,98446.84
2023-01-18T13:33:28.461Z,98446.75
2023-01-18T13:35:59.627Z,98427.72
2023-01-18T13:38:41.005Z,98446.09
2023-01-18T13:41:12.696Z,98440.78
2023-01-18T13:44:03.034Z,98441.06
2023-01-18T13:46:34.061Z,98445.50
2023-01-18T13:49:38.494Z,98447.59
2023-01-18T13:52:31.498Z,98438.84
2023-01-18T13:55:04.003Z,98456.94
2023-01-18T13:57:35.398Z,98457.97
2023-01-18T14:00:05.735Z,98455.56
2023-01-18T14:02:42.548Z,98457.09
2023-01-18T14:05:25.352Z,98468.03
2023-01-18T14:07:57.235Z,98458.41
2023-01-18T14:10:31.549Z,98468.88
2023-01-18T14:13:01.609Z,98469.19
2023-01-18T14:15:38.872Z,98467.91
2023-01-18T14:18:19.137Z,98475.78
2023-01-18T14:20:59.113Z,98478.47
2023-01-18T14:23:57.590Z,98477.00
2023-01-18T14:26:30.545Z,98473.34
2023-01-18T14:29:02.600Z,98481.28
2023-01-18T14:31:34.527Z,98477.88
2023-01-18T14:34:37.149Z,98477.50
2023-01-18T14:37:26.300Z,98474.41
2023-01-18T14:40:14.937Z,98489.44
2023-01-18T14:42:48.650Z,98488.34
2023-01-18T14:45:22.011Z,98485.91
2023-01-18T14:47:50.097Z,98491.84
2023-01-18T14:50:22.102Z,98481.97
2023-01-18T14:52:53.902Z,98483.97
2023-01-18T14:55:28.493Z,98484.47
2023-01-18T14:58:05.300Z,98493.72
2023-01-18T15:00:33.490Z,98485.06
2023-01-18T15:03:13.315Z,98495.72
2023-01-18T15:05:42.971Z,98490.63
2023-01-18T15:08:14.401Z,98495.22
2023-01-18T15:10:45.630Z,98503.66
2023-01-18T15:13:18.389Z,98504.28
2023-01-18T15:15:46.958Z,98499.56
2023-01-18T15:18:20.283Z,98506.00
2023-01-18T15:20:57.542Z,98507.34
2023-01-18T15:23:28.458Z,98516.81
2023-01-18T15:25:58.971Z,98521.31
2023-01-18T15:28:35.018Z,98517.09
2023-01-18T15:31:07.894Z,98521.13
2023-01-18T15:33:37.824Z,98519.69
2023-01-18T15:36:06.783Z,98520.50
2023-01-18T15:38:36.491Z,98531.31
2023-01-18T15:41:10.623Z,98514.19
2023-01-18T15:43:42.941Z,98518.22
2023-01-18T15:46:14.139Z,98517.34
2023-01-18T15:48:49.812Z,98515.53
2023-01-18T15:51:18.425Z,98511.41
2023-01-18T15:53:52.918Z,98507.31
2023-01-18T15:56:26.133Z,98522.56
2023-01-18T15:58:57.087Z,98531.59
2023-01-18T16:01:28.380Z,98531.91
2023-01-18T16:03:59.801Z,98537.91
2023-01-18T16:06:34.249Z,98545.09
2023-01-18T16:09:11.832Z,98554.97
2023-01-18T16:11:46.528Z,98553.53
2023-01-18T16:14:25.860Z,98555.19
2023-01-18T16:16:55.745Z,98553.28
2023-01-18T16:19:29.182Z,98565.75
2023-01-18T16:22:00.807Z,98563.00
2023-01-18T16:24:35.788Z,98565.41
2023-01-18T16:27:14.424Z,98571.66
2023-01-18T16:29:45.188Z,98564.53
2023-01-18T16:32:34.481Z,98576.94
2023-01-18T16:35:11.906Z,98584.16
2023-01-18T16:37:41.499Z,98585.19
2023-01-18T16:40:18.876Z,98592.66
2023-01-18T16:42:59.819Z,98606.16
2023-01-18T16:45:32.996Z,98603.16
2023-01-18T16:48:01.535Z,98606.41
2023-01-18T16:50:29.990Z,98604.63
2023-01-18T16:52:58.682Z,98593.81
2023-01-18T16:55:28.380Z,98602.41
2023-01-18T16:57:57.442Z,98601.75
2023-01-18T17:00:35.801Z,98610.44
2023-01-18T17:03:04.201Z,98613.25
2023-01-18T17:05:33.132Z,98629.31
2023-01-18T17:08:02.328Z,98625.81
2023-01-18T17:10:38.974Z,98612.59
2023-01-18T17:13:07.128Z,98602.50
2023-01-18T17:15:35.629Z,98609.81
2023-01-18T17:18:04.763Z,98616.63
2023-01-18T17:20:35.067Z,98614.78
2023-01-18T17:23:03.770Z,98609.81
2023-01-18T17:25:33.465Z,98612.59
2023-01-18T17:28:02.061Z,98627.03
2023-01-18T17:30:30.585Z,98613.84
2023-01-18T17:32:59.427Z,98618.53
2023-01-18T17:35:29.072Z,98613.84
2023-01-18T17:38:05.050Z,98609.94
2023-01-18T17:40:44.171Z,98619.63
2023-01-18T17:43:17.219Z,98625.66
2023-01-18T17:45:59.863Z,98630.06
2023-01-18T17:48:29.783Z,98639.78
2023-01-18T17:50:57.983Z,98645.75
2023-01-18T17:53:26.767Z,98638.81
2023-01-18T17:55:56.631Z,98632.56
2023-01-18T17:58:24.853Z,98629.44
2023-01-18T18:00:53.278Z,98634.44
2023-01-18T18:03:22.511Z,98636.81
2023-01-18T18:05:50.859Z,98648.91
2023-01-18T18:08:20.045Z,98642.78
2023-01-18T18:10:49.375Z,98652.59
2023-01-18T18:13:19.801Z,98662.38
2023-01-18T18:15:50.960Z,98656.97
2023-01-18T18:18:23.152Z,98642.63
2023-01-18T18:20:57.943Z,98651.47
2023-01-18T18:23:27.041Z,98665.88
2023-01-18T18:25:55.429Z,98663.97
2023-01-18T18:28:25.405Z,98663.97
2023-01-18T18:30:53.878Z,98666.72
2023-01-18T18:33:23.127Z,98663.28
2023-01-18T18:35:52.336Z,98645.72
2023-01-18T18:38:22.997Z,98655.34
2023-01-18T18:40:51.561Z,98649.59
2023-01-18T18:43:20.680Z,98651.53
2023-01-18T18:45:50.432Z,98661.53
2023-01-18T18:48:18.619Z,98662.69
2023-01-18T18:50:47.580Z,98651.91
2023-01-18T18:53:16.894Z,98649.59
2023-01-18T18:55:45.354Z,98661.31
2023-01-18T18:58:13.863Z,98647.69
2023-01-18T19:00:42.164Z,98646.94
2023-01-18T19:03:11.985Z,98645.38
2023-01-18T19:05:40.370Z,98658.97
2023-01-18T19:08:08.679Z,98643.38
2023-01-18T19:10:36.871Z,98648.09
2023-01-18T19:13:05.132Z,98641.88
2023-01-18T19:15:33.419Z,98642.25
2023-01-18T19:18:01.539Z,98644.56
2023-01-18T19:20:33.136Z,98652.00
2023-01-18T19:23:02.054Z,98652.41
2023-01-18T19:25:30.405Z,98648.94
2023-01-18T19:27:58.509Z,98647.00
2023-01-18T19:30:26.927Z,98648.13
2023-01-18T19:32:55.561Z,98643.88
2023-01-18T19:35:24.176Z,98652.47
2023-01-18T19:37:53.985Z,98649.78
2023-01-18T19:40:22.471Z,98654.84
2023-01-18T19:42:54.981Z,98656.78
2023-01-18T19:45:28.299Z,98658.72
2023-01-18T19:48:00.135Z,98658.31
2023-01-18T19:50:29.656Z,98654.81
2023-01-18T19:53:03.662Z,98660.25
2023-01-18T19:55:31.941Z,98669.59
2023-01-18T19:58:01.690Z,98662.19
2023-01-18T20:00:30.529Z,98654.44
2023-01-18T20:03:00.744Z,98675.03
2023-01-18T20:05:29.575Z,98664.16
2023-01-18T20:08:00.525Z,98649.00
2023-01-18T20:10:30.305Z,98654.81
2023-01-18T20:12:59.965Z,98661.81
2023-01-18T20:15:28.829Z,98675.03
2023-01-18T20:17:57.167Z,98673.09
2023-01-18T20:20:32.455Z,98655.59
2023-01-18T20:23:05.277Z,98646.25
2023-01-18T20:25:34.078Z,98647.03
2023-01-18T20:28:02.320Z,98628.00
2023-01-18T20:30:30.867Z,98614.00
2023-01-18T20:32:59.916Z,98615.16
2023-01-18T20:35:28.656Z,98617.13
2023-01-18T20:37:57.281Z,98633.06
2023-01-18T20:40:27.026Z,98645.13
2023-01-18T20:42:55.863Z,98649.75
2023-01-18T20:45:23.966Z,98642.38
2023-01-18T20:47:52.130Z,98645.09
2023-01-18T20:50:23.292Z,98651.72
2023-01-18T20:52:51.760Z,98646.28
2023-01-18T20:55:20.041Z,98643.16
2023-01-18T20:57:52.261Z,98643.94
2023-01-18T21:00:21.624Z,98648.59
2023-01-18T21:02:49.882Z,98652.50
2023-01-18T21:05:18.401Z,98661.00
2023-01-18T21:07:46.627Z,98663.34
2023-01-18T21:10:14.833Z,98655.97
2023-01-18T21:12:43.659Z,98655.22
2023-01-18T21:15:13.680Z,98666.47
2023-01-18T21:17:41.743Z,98669.97
2023-01-18T21:20:11.245Z,98668.00
2023-01-18T21:22:39.250Z,98669.59
2023-01-18T21:25:08.705Z,98671.16
2023-01-18T21:27:37.011Z,98682.00
2023-01-18T21:30:06.010Z,98676.16
2023-01-18T21:32:35.539Z,98682.78
2023-01-18T21:35:03.880Z,98699.88
2023-01-18T21:37:31.926Z,98694.44
2023-01-18T21:40:00.779Z,98695.97
2023-01-18T21:42:46.630Z,98684.69
2023-01-18T21:45:29.041Z,98681.97
2023-01-18T21:48:00.038Z,98680.41
2023-01-18T21:50:45.891Z,98679.31
2023-01-18T21:53:34.604Z,98673.44
2023-01-18T21:56:02.940Z,98664.88
2023-01-18T21:58:48.489Z,98670.66
2023-01-18T22:01:19.853Z,98657.09
2023-01-18T22:04:08.672Z,98647.81
2023-01-18T22:06:37.288Z,98655.53
2023-01-18T22:09:06.087Z,98650.50
2023-01-18T22:11:34.128Z,98644.22
2023-01-18T22:14:03.922Z,98649.25
2023-01-18T22:16:32.327Z,98657.81
2023-01-18T22:19:03.249Z,98664.03
2023-01-18T22:21:32.142Z,98650.81
2023-01-18T22:24:00.944Z,98642.19
2023-01-18T22:26:31.153Z,98636.00
2023-01-18T22:28:59.831Z,98637.22
2023-01-18T22:31:29.448Z,98635.22
2023-01-18T22:33:58.141Z,98642.25
2023-01-18T22:36:28.452Z,98638.34
2023-01-18T22:38:56.652Z,98614.63
2023-01-18T22:41:26.923Z,98614.63
2023-01-18T22:43:56.471Z,98633.56
2023-01-18T22:46:25.579Z,98644.56
2023-01-18T22:48:53.918Z,98630.53
2023-01-18T22:51:23.816Z,98609.22
2023-01-18T22:53:53.657Z,98598.75
2023-01-18T22:56:23.339Z,98595.31
2023-01-18T22:58:52.171Z,98589.84
2023-01-18T23:01:23.329Z,98609.19
2023-01-18T23:03:51.603Z,98609.59
2023-01-18T23:06:20.836Z,98605.00
2023-01-18T23:08:49.821Z,98592.56
2023-01-18T23:11:21.952Z,98605.00
2023-01-18T23:14:05.837Z,98608.13
2023-01-18T23:16:52.068Z,98605.03
2023-01-18T23:19:20.426Z,98609.66
2023-01-18T23:21:48.600Z,98615.88
2023-01-18T23:24:16.732Z,98618.97
2023-01-18T23:26:46.593Z,98614.63
2023-01-18T23:29:15.661Z,98616.50
2023-01-18T23:31:44.351Z,98611.06
2023-01-18T23:34:12.388Z,98613.06
2023-01-18T23:36:40.410Z,98619.19
2023-01-18T23:39:26.146Z,98604.75
2023-01-18T23:42:13.227Z,98606.34
2023-01-18T23:44:59.029Z,98600.97
2023-01-18T23:47:44.635Z,98619.97
2023-01-18T23:50:30.584Z,98615.66
2023-01-18T23:53:18.204Z,98605.59
2023-01-18T23:55:46.414Z,98613.69
2023-01-18T23:58:16.072Z,98622.53
